Elimsport, Pennsylvania
Current Conditions -  °F | °C
As of 5:54 PM on Saturday 22 Nov 2014 (Local Time) from KIPT Reporting Station
Light Rain Light Rain  
Wind Chill: -1°   Ceiling: 3500
Heat Index:   Visibility: 9mi
Dew Point: -4°   Wind: 5mph
Humidity: 67%   Direction: NA
Pressure: 30.22"   Gusts: NA
Location:  41.1181°N, 77.0218°W
Report Text: KIPT 222254Z VRB04KT 9SM -RA OVC035 01/M04 A3022 RMK AO2 RAB53 SLP240 P0000 T00111044
Loading
Personal Weather Stations






























Interactive Weather Map New forecast layout! Learn more

10-Day Weather Forecast

Advertisements
Track Severe Weather on mobile